createdAt,value
2022-10-30T00:05:58.844Z,16.20
2022-10-30T00:13:34.045Z,16.52
2022-10-30T00:21:09.183Z,15.88
2022-10-30T00:28:44.252Z,15.35
2022-10-30T00:43:53.462Z,15.98
2022-10-30T00:51:30.064Z,16.25
2022-10-30T00:59:09.167Z,15.55
2022-10-30T01:06:48.179Z,16.20
2022-10-30T01:14:23.316Z,15.13
2022-10-30T01:29:56.368Z,14.15
2022-10-30T01:37:35.529Z,13.88
2022-10-30T01:45:16.432Z,13.77
2022-10-30T01:52:57.704Z,12.93
2022-10-30T02:00:33.364Z,13.68
2022-10-30T02:08:07.395Z,13.63
2022-10-30T02:15:43.717Z,14.65
2022-10-30T02:23:20.763Z,14.63
2022-10-30T02:30:54.493Z,13.63
2022-10-30T02:38:29.865Z,13.32
2022-10-30T02:46:03.579Z,12.88
2022-10-30T02:53:38.983Z,12.40
2022-10-30T03:01:14.975Z,12.10
2022-10-30T03:08:50.200Z,13.30
2022-10-30T03:16:29.362Z,12.70
2022-10-30T03:24:04.738Z,12.82
2022-10-30T03:31:38.448Z,13.55
2022-10-30T03:39:13.513Z,12.20
2022-10-30T03:46:47.205Z,12.35
2022-10-30T03:54:24.509Z,13.00
2022-10-30T04:01:58.291Z,13.57
2022-10-30T04:09:33.441Z,13.88
2022-10-30T04:24:42.324Z,12.90
2022-10-30T04:32:15.954Z,14.63
2022-10-30T04:39:50.874Z,13.38
2022-10-30T04:54:59.683Z,13.77
2022-10-30T05:10:12.107Z,12.95
2022-10-30T05:17:45.678Z,14.32
2022-10-30T05:25:20.641Z,13.73
2022-10-30T05:40:34.828Z,16.17
2022-10-30T05:48:09.000Z,16.02
2022-10-30T05:55:43.947Z,15.90
2022-10-30T06:03:17.865Z,14.52
2022-10-30T06:10:55.295Z,16.52
2022-10-30T06:18:28.884Z,13.95
2022-10-30T06:26:03.936Z,15.13
2022-10-30T06:41:12.285Z,13.85
2022-10-30T06:56:20.704Z,14.95
2022-10-30T07:11:29.195Z,14.60
2022-10-30T07:26:39.811Z,14.07
2022-10-30T07:34:13.457Z,13.60
2022-10-30T07:41:50.243Z,13.93
2022-10-30T07:49:24.377Z,14.73
2022-10-30T07:56:59.447Z,15.60
2022-10-30T08:12:09.034Z,12.32
2022-10-30T08:19:42.866Z,13.18
2022-10-30T08:27:17.803Z,12.13
2022-10-30T08:34:51.476Z,12.40
2022-10-30T08:42:26.527Z,11.95
2022-10-30T08:50:00.226Z,11.77
2022-10-30T08:57:38.397Z,10.60
2022-10-30T09:05:12.713Z,10.60
2022-10-30T09:12:47.707Z,10.93
2022-10-30T09:20:21.523Z,9.13
2022-10-30T09:27:56.522Z,9.77
2022-10-30T09:43:15.386Z,8.25
2022-10-30T09:50:57.844Z,7.70
2022-10-30T09:58:37.297Z,6.85
2022-10-30T10:06:18.426Z,6.90
2022-10-30T10:13:57.416Z,5.80
2022-10-30T10:21:36.172Z,5.93
2022-10-30T10:29:34.092Z,6.07
2022-10-30T10:37:17.393Z,5.38
2022-10-30T10:45:04.270Z,5.30
2022-10-30T10:52:41.840Z,6.18
2022-10-30T11:00:20.029Z,4.85
2022-10-30T11:07:59.708Z,5.47
2022-10-30T11:15:47.147Z,5.80
2022-10-30T11:23:35.295Z,4.95
2022-10-30T11:31:24.752Z,5.43
2022-10-30T11:39:09.993Z,5.20
2022-10-30T11:46:45.102Z,5.22
2022-10-30T11:54:22.642Z,5.75
2022-10-30T12:02:03.023Z,5.30
2022-10-30T12:09:43.134Z,5.10
2022-10-30T12:17:19.807Z,4.63
2022-10-30T12:24:53.787Z,5.28
2022-10-30T12:32:39.676Z,5.53
2022-10-30T12:40:17.842Z,5.72
2022-10-30T12:47:59.337Z,4.35
2022-10-30T12:55:38.177Z,5.03
2022-10-30T13:03:25.020Z,4.90
2022-10-30T13:11:06.326Z,5.57
2022-10-30T13:18:41.438Z,5.03
2022-10-30T13:26:25.171Z,4.93
2022-10-30T13:34:08.177Z,4.68
2022-10-30T13:41:52.159Z,4.28
2022-10-30T13:49:45.639Z,4.13
2022-10-30T13:57:26.262Z,4.95
2022-10-30T14:05:15.704Z,4.68
2022-10-30T14:12:54.269Z,4.13
2022-10-30T14:20:29.947Z,4.93
2022-10-30T14:28:03.872Z,4.65
2022-10-30T14:36:14.393Z,4.95
2022-10-30T14:43:58.013Z,5.65
2022-10-30T14:51:38.320Z,5.60
2022-10-30T14:59:24.488Z,5.82
2022-10-30T15:07:07.459Z,5.13
2022-10-30T15:15:00.497Z,5.10
2022-10-30T15:22:37.012Z,5.75
2022-10-30T15:30:18.188Z,5.57
2022-10-30T15:38:01.621Z,5.70
2022-10-30T15:45:37.170Z,5.07
2022-10-30T15:53:20.352Z,5.45
2022-10-30T16:00:58.575Z,5.97
2022-10-30T16:08:44.645Z,7.35
2022-10-30T16:16:23.070Z,6.72
2022-10-30T16:24:00.930Z,6.07
2022-10-30T16:31:37.055Z,6.32
2022-10-30T16:39:16.706Z,6.35
2022-10-30T16:46:52.693Z,6.57
2022-10-30T16:54:31.704Z,6.47
2022-10-30T17:02:13.713Z,6.40
2022-10-30T17:09:52.290Z,7.90
2022-10-30T17:17:29.610Z,6.47
2022-10-30T17:25:16.568Z,6.55
2022-10-30T17:32:54.622Z,6.28
2022-10-30T17:40:29.629Z,7.57
2022-10-30T17:55:40.484Z,11.15
2022-10-30T18:03:14.197Z,12.13
2022-10-30T18:10:49.281Z,12.82
2022-10-30T18:25:57.826Z,12.27
2022-10-30T18:41:07.211Z,9.07
2022-10-30T18:48:41.163Z,10.95
2022-10-30T18:56:16.473Z,12.68
2022-10-30T19:03:50.617Z,10.88
2022-10-30T19:11:26.799Z,8.63
2022-10-30T19:19:01.969Z,9.27
2022-10-30T19:26:37.155Z,9.73
2022-10-30T19:34:10.859Z,9.60
2022-10-30T19:41:45.811Z,10.27
2022-10-30T19:49:21.487Z,11.75
2022-10-30T19:56:56.418Z,14.63
2022-10-30T20:04:30.086Z,13.23
2022-10-30T20:12:06.086Z,15.02
2022-10-30T20:19:42.252Z,14.20
2022-10-30T20:27:17.249Z,15.45
2022-10-30T20:42:26.529Z,16.75
2022-10-30T20:50:00.592Z,17.50
2022-10-30T21:05:30.621Z,18.40
2022-10-30T21:13:11.072Z,17.48
2022-10-30T21:20:45.052Z,18.90
2022-10-30T21:28:20.008Z,18.08
2022-10-30T21:43:28.504Z,21.15
2022-10-30T21:58:44.671Z,21.90
2022-10-30T22:06:20.261Z,20.95
2022-10-30T22:13:56.372Z,21.38
2022-10-30T22:21:30.763Z,22.42
2022-10-30T22:29:05.758Z,23.13
2022-10-30T22:36:39.312Z,22.25
2022-10-30T22:44:17.388Z,23.17
2022-10-30T22:51:51.542Z,23.45
2022-10-30T22:59:26.687Z,23.10
2022-10-30T23:07:00.376Z,23.05
2022-10-30T23:14:35.622Z,22.73
2022-10-30T23:22:09.258Z,22.85
2022-10-30T23:29:44.170Z,24.20
2022-10-30T23:44:52.634Z,25.85
